createdAt,value
2022-10-12T00:03:32.186Z,100812.27
2022-10-12T00:08:37.352Z,100810.52
2022-10-12T00:13:40.860Z,100816.08
2022-10-12T00:18:44.579Z,100818.52
2022-10-12T00:23:47.887Z,100813.39
2022-10-12T00:28:57.445Z,100815.77
2022-10-12T00:34:02.736Z,100821.71
2022-10-12T00:39:09.175Z,100824.84
2022-10-12T00:44:34.208Z,100826.48
2022-10-12T00:49:37.723Z,100819.40
2022-10-12T00:54:46.158Z,100817.48
2022-10-12T01:00:27.043Z,100818.42
2022-10-12T01:05:30.559Z,100819.46
2022-10-12T01:10:33.874Z,100819.33
2022-10-12T01:15:41.466Z,100823.35
2022-10-12T01:21:09.369Z,100820.30
2022-10-12T01:26:31.419Z,100817.52
2022-10-12T01:31:47.324Z,100818.10
2022-10-12T01:37:00.979Z,100817.98
2022-10-12T01:42:09.922Z,100820.13
2022-10-12T01:47:14.357Z,100822.30
2022-10-12T01:52:45.320Z,100820.23
2022-10-12T01:58:10.130Z,100820.66
2022-10-12T02:03:29.417Z,100828.40
2022-10-12T02:08:38.667Z,100827.04
2022-10-12T02:14:14.336Z,100820.41
2022-10-12T02:19:24.201Z,100823.04
2022-10-12T02:24:30.787Z,100825.37
2022-10-12T02:29:40.370Z,100821.70
2022-10-12T02:34:49.496Z,100821.34
2022-10-12T02:40:01.404Z,100822.24
2022-10-12T02:45:10.947Z,100827.05
2022-10-12T02:50:17.475Z,100824.94
2022-10-12T02:55:20.822Z,100830.33
2022-10-12T03:00:24.069Z,100834.02
2022-10-12T03:05:27.278Z,100836.34
2022-10-12T03:10:30.486Z,100829.67
2022-10-12T03:15:33.898Z,100830.61
2022-10-12T03:20:37.316Z,100830.81
2022-10-12T03:25:41.944Z,100835.73
2022-10-12T03:30:45.267Z,100833.97
2022-10-12T03:35:48.472Z,100832.10
2022-10-12T03:40:51.987Z,100831.98
2022-10-12T03:45:55.097Z,100836.27
2022-10-12T03:50:58.711Z,100848.11
2022-10-12T03:56:02.026Z,100857.48
2022-10-12T04:01:05.500Z,100852.85
2022-10-12T04:06:09.056Z,100856.35
2022-10-12T04:11:12.263Z,100856.08
2022-10-12T04:16:15.574Z,100857.38
2022-10-12T04:21:26.053Z,100859.96
2022-10-12T04:26:29.362Z,100861.88
2022-10-12T04:31:32.673Z,100858.56
2022-10-12T04:36:35.880Z,100860.70
2022-10-12T04:41:39.922Z,100863.39
2022-10-12T04:46:43.117Z,100865.68
2022-10-12T04:51:49.198Z,100873.21
2022-10-12T04:56:52.515Z,100871.96
2022-10-12T05:01:55.963Z,100870.90
2022-10-12T05:06:59.230Z,100874.81
2022-10-12T05:12:02.443Z,100871.77
2022-10-12T05:17:05.647Z,100875.89
2022-10-12T05:22:08.957Z,100881.16
2022-10-12T05:27:12.367Z,100887.56
2022-10-12T05:32:15.988Z,100893.80
2022-10-12T05:37:19.197Z,100900.79
2022-10-12T05:42:22.407Z,100902.55
2022-10-12T05:47:26.124Z,100902.11
2022-10-12T05:52:29.645Z,100905.17
2022-10-12T05:57:32.846Z,100914.40
2022-10-12T06:02:36.512Z,100911.23
2022-10-12T06:07:39.879Z,100917.02
2022-10-12T06:12:43.704Z,100917.41
2022-10-12T06:17:47.011Z,100920.23
2022-10-12T06:22:50.123Z,100922.86
2022-10-12T06:27:53.444Z,100925.05
2022-10-12T06:32:56.637Z,100928.61
2022-10-12T06:37:59.846Z,100939.35
2022-10-12T06:43:03.258Z,100944.21
2022-10-12T06:48:06.469Z,100949.35
2022-10-12T06:53:09.676Z,100953.17
2022-10-12T06:58:13.192Z,100961.93
2022-10-12T07:03:17.933Z,100961.88
2022-10-12T07:08:21.246Z,100970.13
2022-10-12T07:13:24.555Z,100969.63
2022-10-12T07:18:28.172Z,100964.53
2022-10-12T07:23:33.324Z,100970.34
2022-10-12T07:28:37.818Z,100961.88
2022-10-12T07:33:41.076Z,100963.58
2022-10-12T07:38:45.572Z,100970.64
2022-10-12T07:43:48.928Z,100962.92
2022-10-12T07:48:52.340Z,100959.85
2022-10-12T07:53:55.650Z,100957.67
2022-10-12T07:58:59.473Z,100959.48
2022-10-12T08:04:02.787Z,100956.25
2022-10-12T08:09:06.506Z,100951.43
2022-10-12T08:14:16.890Z,100953.91
2022-10-12T08:19:20.293Z,100956.64
2022-10-12T08:24:23.604Z,100961.09
2022-10-12T08:29:27.016Z,100969.29
2022-10-12T08:34:31.146Z,100965.39
2022-10-12T08:39:34.251Z,100966.50
2022-10-12T08:44:59.990Z,100966.58
2022-10-12T08:50:07.380Z,100973.08
2022-10-12T08:55:26.331Z,100977.36
2022-10-12T09:05:55.932Z,100975.59
2022-10-12T09:11:20.440Z,100977.28
2022-10-12T09:16:26.210Z,100977.96
2022-10-12T09:21:31.774Z,100981.27
2022-10-12T09:26:37.694Z,100975.83
2022-10-12T09:32:05.632Z,100973.11
2022-10-12T09:37:17.032Z,100973.27
2022-10-12T09:42:20.344Z,100972.93
2022-10-12T09:47:31.962Z,100975.36
2022-10-12T09:52:45.015Z,100977.44
2022-10-12T09:57:59.766Z,100980.23
2022-10-12T10:03:03.999Z,100982.59
2022-10-12T10:08:21.145Z,100980.14
2022-10-12T10:13:28.545Z,100983.59
2022-10-12T10:18:39.121Z,100981.05
2022-10-12T10:23:59.122Z,100987.36
2022-10-12T10:29:24.253Z,100993.96
2022-10-12T10:34:27.658Z,100989.73
2022-10-12T10:40:00.469Z,100988.55
2022-10-12T10:45:09.006Z,100985.55
2022-10-12T10:50:32.683Z,100977.89
2022-10-12T10:55:42.343Z,100976.93
2022-10-12T11:00:48.944Z,100975.28
2022-10-12T11:06:25.828Z,100979.79
2022-10-12T11:11:32.621Z,100978.14
2022-10-12T11:16:46.480Z,100979.63
2022-10-12T11:22:03.820Z,100977.44
2022-10-12T11:27:10.099Z,100976.83
2022-10-12T11:32:22.653Z,100971.73
2022-10-12T11:37:39.149Z,100965.50
2022-10-12T11:42:43.756Z,100968.24
2022-10-12T11:47:51.707Z,100968.30
2022-10-12T11:52:57.475Z,100967.44
2022-10-12T11:58:13.420Z,100969.73
2022-10-12T12:03:30.957Z,100972.43
2022-10-12T12:08:40.483Z,100979.55
2022-10-12T12:13:43.693Z,100980.48
2022-10-12T12:19:09.016Z,100982.23
2022-10-12T12:24:17.670Z,100982.83
2022-10-12T12:29:28.543Z,100973.02
2022-10-12T12:34:31.854Z,100977.09
2022-10-12T12:39:36.444Z,100974.94
2022-10-12T12:44:44.720Z,100973.58
2022-10-12T12:49:53.356Z,100969.99
2022-10-12T12:55:21.446Z,100967.69
2022-10-12T13:00:27.100Z,100960.93
2022-10-12T13:06:08.315Z,100966.51
2022-10-12T13:11:42.650Z,100965.20
2022-10-12T13:22:35.421Z,100964.80
2022-10-12T13:27:47.469Z,100963.23
2022-10-12T13:32:58.049Z,100964.71
2022-10-12T13:38:06.927Z,100963.64
2022-10-12T13:43:28.736Z,100967.39
2022-10-12T13:48:58.009Z,100969.06
2022-10-12T13:53:56.152Z,100966.05
2022-10-12T13:59:04.307Z,100970.83
2022-10-12T14:04:11.675Z,100970.16
2022-10-12T14:09:21.644Z,100965.25
2022-10-12T14:14:32.228Z,100962.23
2022-10-12T14:19:41.589Z,100961.93
2022-10-12T14:24:45.840Z,100959.22
2022-10-12T14:30:04.007Z,100957.80
2022-10-12T14:35:21.215Z,100957.10
2022-10-12T14:40:38.731Z,100955.39
2022-10-12T14:45:41.843Z,100956.84
2022-10-12T14:50:45.452Z,100957.42
2022-10-12T14:55:50.903Z,100955.86
2022-10-12T15:00:57.318Z,100949.77
2022-10-12T15:06:00.517Z,100949.37
2022-10-12T15:11:03.659Z,100949.48
2022-10-12T15:16:18.769Z,100953.21
2022-10-12T15:21:22.042Z,100954.77
2022-10-12T15:26:25.133Z,100950.28
2022-10-12T15:31:28.247Z,100949.16
2022-10-12T15:36:31.363Z,100949.65
2022-10-12T15:41:34.524Z,100951.84
2022-10-12T15:46:37.621Z,100949.82
2022-10-12T15:52:01.983Z,100951.95
2022-10-12T15:57:06.712Z,100950.48
2022-10-12T16:02:12.551Z,100944.80
2022-10-12T16:07:16.053Z,100946.41
2022-10-12T16:12:19.681Z,100944.40
2022-10-12T16:17:22.749Z,100940.33
2022-10-12T16:22:25.778Z,100943.68
2022-10-12T16:27:29.762Z,100945.64
2022-10-12T16:32:33.093Z,100946.84
2022-10-12T16:37:36.536Z,100950.75
2022-10-12T16:42:39.939Z,100951.65
2022-10-12T16:47:43.190Z,100955.72
2022-10-12T16:52:46.631Z,100953.32
2022-10-12T16:57:49.896Z,100950.55
2022-10-12T17:02:57.308Z,100948.57
2022-10-12T17:08:00.908Z,100950.95
2022-10-12T17:20:27.838Z,100954.05
2022-10-12T17:25:31.002Z,100953.88
2022-10-12T17:30:38.454Z,100946.03
2022-10-12T17:35:42.262Z,100947.16
2022-10-12T17:40:45.402Z,100952.80
2022-10-12T17:45:48.477Z,100953.61
2022-10-12T17:50:51.818Z,100949.63
2022-10-12T17:55:58.938Z,100948.42
2022-10-12T18:01:11.223Z,100944.50
2022-10-12T18:06:17.701Z,100941.02
2022-10-12T18:11:21.420Z,100940.66
2022-10-12T18:16:30.606Z,100941.58
2022-10-12T18:21:34.205Z,100943.19
2022-10-12T18:26:37.580Z,100947.10
2022-10-12T18:31:40.937Z,100948.76
2022-10-12T18:36:43.996Z,100952.56
2022-10-12T18:41:51.748Z,100948.70
2022-10-12T18:46:54.938Z,100950.08
2022-10-12T18:51:58.152Z,100950.05
2022-10-12T18:57:01.573Z,100954.92
2022-10-12T19:02:05.096Z,100952.50
2022-10-12T19:07:08.513Z,100951.68
2022-10-12T19:12:13.020Z,100953.52
2022-10-12T19:17:16.672Z,100952.46
2022-10-12T19:22:20.043Z,100952.67
2022-10-12T19:27:23.496Z,100949.59
2022-10-12T19:32:26.663Z,100951.66
2022-10-12T19:37:29.849Z,100953.27
2022-10-12T19:42:33.075Z,100953.84
2022-10-12T19:47:37.560Z,100958.96
2022-10-12T19:52:40.983Z,100963.64
2022-10-12T19:57:45.557Z,100966.77
2022-10-12T20:02:49.739Z,100968.45
2022-10-12T20:07:53.003Z,100964.53
2022-10-12T20:12:56.249Z,100964.25
2022-10-12T20:18:00.535Z,100964.08
2022-10-12T20:23:03.573Z,100962.15
2022-10-12T20:28:07.537Z,100956.77
2022-10-12T20:33:11.127Z,100953.52
2022-10-12T20:38:14.552Z,100948.64
2022-10-12T20:43:19.542Z,100944.71
2022-10-12T20:48:25.555Z,100941.05
2022-10-12T20:53:31.578Z,100945.59
2022-10-12T20:58:37.557Z,100949.34
2022-10-12T21:03:44.344Z,100948.36
2022-10-12T21:08:55.557Z,100953.98
2022-10-12T21:14:03.502Z,100947.52
2022-10-12T21:19:08.509Z,100948.75
2022-10-12T21:24:14.511Z,100948.79
2022-10-12T21:29:20.482Z,100948.96
2022-10-12T21:34:24.828Z,100951.35
2022-10-12T21:39:29.296Z,100957.73
2022-10-12T21:53:00.183Z,100961.45
2022-10-12T21:58:03.836Z,100957.81
2022-10-12T22:03:07.039Z,100954.24
2022-10-12T22:08:11.170Z,100960.27
2022-10-12T22:13:14.482Z,100956.70
2022-10-12T22:18:17.588Z,100954.05
2022-10-12T22:23:21.205Z,100953.31
2022-10-12T22:28:24.472Z,100954.08
2022-10-12T22:33:27.728Z,100958.33
2022-10-12T22:38:31.957Z,100957.86
2022-10-12T22:43:35.575Z,100960.45
2022-10-12T22:48:39.097Z,100960.73
2022-10-12T22:53:43.735Z,100953.08
2022-10-12T22:58:49.091Z,100951.89
2022-10-12T23:03:53.669Z,100951.35
2022-10-12T23:08:57.157Z,100952.36
2022-10-12T23:14:00.354Z,100955.94
2022-10-12T23:19:05.934Z,100956.38
2022-10-12T23:24:10.175Z,100958.00
2022-10-12T23:29:13.368Z,100957.73
2022-10-12T23:34:16.568Z,100963.75
2022-10-12T23:39:19.777Z,100964.52
2022-10-12T23:44:23.189Z,100967.02
2022-10-12T23:49:26.298Z,100962.14
2022-10-12T23:54:29.812Z,100954.98
2022-10-12T23:59:33.019Z,100952.92
